createdAt,value
2018-06-17T00:02:21.715Z,17.43
2018-06-17T00:04:50.193Z,14.73
2018-06-17T00:07:18.944Z,13.97
2018-06-17T00:09:47.399Z,17.87
2018-06-17T00:12:15.845Z,13.63
2018-06-17T00:14:44.276Z,14.37
2018-06-17T00:17:12.698Z,16.33
2018-06-17T00:19:41.112Z,11.90
2018-06-17T00:22:09.500Z,12.67
2018-06-17T00:24:37.904Z,15.90
2018-06-17T00:27:06.363Z,13.87
2018-06-17T00:29:34.842Z,15.23
2018-06-17T00:32:03.268Z,12.30
2018-06-17T00:34:31.757Z,14.87
2018-06-17T00:37:00.156Z,14.37
2018-06-17T00:39:28.556Z,15.90
2018-06-17T00:41:56.988Z,12.67
2018-06-17T00:44:25.478Z,13.00
2018-06-17T00:46:53.901Z,14.03
2018-06-17T00:49:22.344Z,13.63
2018-06-17T00:51:50.732Z,12.33
2018-06-17T00:54:19.137Z,12.83
2018-06-17T00:56:58.820Z,10.63
2018-06-17T00:59:27.216Z,12.93
2018-06-17T01:01:55.633Z,10.70
2018-06-17T01:04:24.061Z,13.60
2018-06-17T01:06:52.456Z,15.83
2018-06-17T01:09:21.131Z,14.47
2018-06-17T01:11:49.492Z,11.60
2018-06-17T01:14:17.904Z,11.10
2018-06-17T01:16:46.384Z,12.53
2018-06-17T01:19:14.837Z,10.60
2018-06-17T01:21:43.294Z,11.07
2018-06-17T01:24:11.735Z,14.53
2018-06-17T01:26:40.101Z,8.87
2018-06-17T01:29:08.468Z,12.10
2018-06-17T01:31:36.872Z,16.07
2018-06-17T01:34:05.382Z,12.33
2018-06-17T01:36:33.863Z,10.10
2018-06-17T01:39:02.313Z,11.47
2018-06-17T01:41:30.751Z,11.40
2018-06-17T01:43:59.124Z,12.93
2018-06-17T01:46:27.656Z,10.50
2018-06-17T01:48:55.998Z,12.57
2018-06-17T01:51:24.416Z,15.07
2018-06-17T01:53:52.821Z,13.53
2018-06-17T01:56:21.209Z,13.50
2018-06-17T01:58:49.609Z,10.33
2018-06-17T02:01:17.994Z,7.57
2018-06-17T02:03:51.625Z,10.90
2018-06-17T02:06:25.322Z,8.60
2018-06-17T02:08:58.996Z,13.70
2018-06-17T02:11:32.692Z,9.53
2018-06-17T02:14:06.592Z,14.03
2018-06-17T02:16:35.135Z,11.70
2018-06-17T02:19:03.508Z,9.70
2018-06-17T02:21:31.946Z,11.43
2018-06-17T02:24:00.533Z,12.30
2018-06-17T02:26:28.927Z,10.27
2018-06-17T02:28:57.376Z,13.00
2018-06-17T02:31:25.768Z,12.33
2018-06-17T02:33:54.452Z,11.07
2018-06-17T02:36:22.915Z,11.13
2018-06-17T02:38:51.609Z,9.57
2018-06-17T02:41:20.096Z,10.63
2018-06-17T02:43:48.547Z,10.63
2018-06-17T02:46:22.170Z,9.73
2018-06-17T02:48:55.797Z,10.47
2018-06-17T02:51:29.621Z,10.93
2018-06-17T02:54:03.401Z,9.80
2018-06-17T02:56:31.807Z,10.97
2018-06-17T02:59:00.194Z,10.40
2018-06-17T03:01:28.668Z,9.53
2018-06-17T03:03:57.050Z,10.93
2018-06-17T03:06:25.481Z,9.77
2018-06-17T03:08:53.874Z,11.27
2018-06-17T03:11:22.293Z,11.87
2018-06-17T03:13:50.695Z,9.50
2018-06-17T03:16:19.116Z,11.03
2018-06-17T03:18:47.607Z,15.10
2018-06-17T03:21:15.997Z,10.43
2018-06-17T03:23:44.390Z,12.80
2018-06-17T03:26:18.133Z,12.97
2018-06-17T03:28:51.855Z,10.33
2018-06-17T03:31:21.072Z,8.67
2018-06-17T03:33:55.646Z,8.33
2018-06-17T03:36:24.155Z,11.40
2018-06-17T03:38:52.610Z,10.10
2018-06-17T03:41:20.832Z,10.63
2018-06-17T03:43:49.267Z,9.10
2018-06-17T03:46:17.674Z,11.50
2018-06-17T03:48:46.187Z,9.83
2018-06-17T03:51:14.568Z,8.40
2018-06-17T03:53:43.016Z,8.83
2018-06-17T03:56:11.522Z,8.27
2018-06-17T03:58:39.922Z,8.37
2018-06-17T04:01:08.356Z,8.53
2018-06-17T04:03:36.756Z,9.00
2018-06-17T04:06:05.192Z,8.40
2018-06-17T04:08:33.593Z,7.27
2018-06-17T04:11:02.105Z,10.43
2018-06-17T04:13:30.513Z,9.83
2018-06-17T04:15:58.921Z,9.00
2018-06-17T04:18:27.331Z,9.27
2018-06-17T04:20:55.757Z,9.30
2018-06-17T04:23:24.191Z,8.63
2018-06-17T04:25:52.653Z,8.43
2018-06-17T04:28:21.140Z,6.13
2018-06-17T04:30:49.552Z,8.60
2018-06-17T04:33:17.917Z,8.17
2018-06-17T04:35:46.325Z,8.33
2018-06-17T04:38:14.724Z,10.10
2018-06-17T04:40:43.111Z,6.20
2018-06-17T04:43:11.518Z,6.43
2018-06-17T04:45:39.936Z,6.77
2018-06-17T04:48:08.336Z,6.97
2018-06-17T04:50:36.821Z,7.40
2018-06-17T04:53:05.408Z,5.70
2018-06-17T04:55:33.804Z,6.47
2018-06-17T04:58:02.206Z,6.23
2018-06-17T05:00:30.572Z,5.60
2018-06-17T05:02:58.979Z,8.57
2018-06-17T05:05:27.467Z,10.33
2018-06-17T05:07:55.862Z,6.50
2018-06-17T05:10:24.248Z,9.40
2018-06-17T05:12:53.156Z,12.80
2018-06-17T05:15:21.672Z,7.70
2018-06-17T05:17:50.539Z,8.17
2018-06-17T05:20:18.961Z,10.13
2018-06-17T05:22:47.420Z,11.93
2018-06-17T05:25:15.821Z,9.67
2018-06-17T05:27:44.225Z,10.23
2018-06-17T05:30:18.665Z,9.87
2018-06-17T05:32:47.160Z,6.67
2018-06-17T05:35:15.603Z,11.97
2018-06-17T05:37:43.988Z,6.93
2018-06-17T05:40:12.408Z,9.90
2018-06-17T05:42:40.467Z,7.90
2018-06-17T05:45:08.882Z,7.77
2018-06-17T05:47:37.391Z,6.63
2018-06-17T05:50:05.835Z,6.53
2018-06-17T05:52:34.244Z,7.73
2018-06-17T05:55:02.668Z,5.83
2018-06-17T05:57:31.070Z,6.80
2018-06-17T05:59:59.606Z,9.53
2018-06-17T06:02:28.007Z,8.33
2018-06-17T06:04:56.452Z,8.50
2018-06-17T06:07:24.880Z,7.13
2018-06-17T06:09:53.505Z,7.37
2018-06-17T06:12:22.055Z,6.03
2018-06-17T06:14:51.388Z,6.27
2018-06-17T06:17:19.817Z,4.77
2018-06-17T06:19:49.075Z,6.40
2018-06-17T06:22:17.501Z,6.33
2018-06-17T06:24:45.958Z,4.53
2018-06-17T06:27:14.326Z,10.33
2018-06-17T06:29:42.732Z,7.90
2018-06-17T06:32:11.161Z,7.60
2018-06-17T06:34:39.672Z,4.80
2018-06-17T06:37:08.056Z,5.77
2018-06-17T06:39:36.499Z,6.40
2018-06-17T06:42:04.923Z,5.83
2018-06-17T06:44:33.300Z,7.93
2018-06-17T06:47:01.709Z,7.57
2018-06-17T06:49:30.094Z,7.33
2018-06-17T06:51:58.599Z,10.53
2018-06-17T06:54:27.153Z,4.33
2018-06-17T06:56:55.568Z,8.03
2018-06-17T06:59:24.003Z,5.87
2018-06-17T07:02:03.597Z,6.20
2018-06-17T07:04:43.452Z,5.77
2018-06-17T07:07:22.995Z,4.90
2018-06-17T07:10:02.705Z,6.77
2018-06-17T07:12:31.120Z,8.03
2018-06-17T07:14:59.681Z,8.77
2018-06-17T07:17:39.348Z,5.03
2018-06-17T07:20:07.777Z,6.37
2018-06-17T07:22:36.032Z,7.23
2018-06-17T07:25:04.610Z,5.40
2018-06-17T07:27:56.242Z,5.60
2018-06-17T07:30:24.718Z,7.87
2018-06-17T07:32:53.120Z,6.67
2018-06-17T07:35:22.048Z,7.10
2018-06-17T07:37:50.496Z,7.27
2018-06-17T07:40:55.380Z,7.40
2018-06-17T07:43:23.895Z,6.97
2018-06-17T07:45:52.275Z,5.70
2018-06-17T07:48:32.171Z,7.30
2018-06-17T07:51:11.916Z,7.00
2018-06-17T07:53:40.320Z,6.90
2018-06-17T07:56:08.831Z,5.40
2018-06-17T07:58:38.970Z,7.03
2018-06-17T08:01:07.358Z,7.47
2018-06-17T08:03:35.936Z,4.83
2018-06-17T08:06:05.473Z,6.27
2018-06-17T08:08:33.872Z,12.93
2018-06-17T08:11:02.468Z,8.40
2018-06-17T08:13:30.825Z,9.13
2018-06-17T08:15:59.224Z,6.20
2018-06-17T08:18:27.650Z,7.17
2018-06-17T08:20:56.046Z,5.80
2018-06-17T08:23:24.516Z,6.10
2018-06-17T08:25:52.896Z,5.73
2018-06-17T08:28:21.293Z,10.40
2018-06-17T08:30:50.525Z,6.30
2018-06-17T08:33:18.900Z,6.07
2018-06-17T08:35:47.287Z,7.87
2018-06-17T08:38:15.687Z,3.70
2018-06-17T08:40:44.148Z,7.50
2018-06-17T08:43:12.660Z,7.73
2018-06-17T08:45:40.768Z,5.93
2018-06-17T08:48:09.156Z,7.30
2018-06-17T08:50:37.595Z,5.80
2018-06-17T08:53:06.001Z,4.67
2018-06-17T08:55:34.492Z,6.43
2018-06-17T08:58:02.912Z,5.67
2018-06-17T09:00:31.320Z,5.70
2018-06-17T09:02:59.729Z,7.40
2018-06-17T09:05:28.148Z,7.47
2018-06-17T09:07:57.025Z,6.63
2018-06-17T09:10:25.416Z,6.13
2018-06-17T09:12:53.823Z,7.37
2018-06-17T09:15:22.208Z,5.83
2018-06-17T09:17:50.624Z,7.47
2018-06-17T09:20:18.995Z,5.87
2018-06-17T09:22:47.488Z,7.50
2018-06-17T09:25:15.985Z,5.13
2018-06-17T09:27:44.373Z,9.20
2018-06-17T09:30:12.788Z,5.20
2018-06-17T09:32:41.193Z,5.00
2018-06-17T09:35:09.599Z,5.80
2018-06-17T09:37:38.020Z,7.33
2018-06-17T09:40:06.481Z,9.40
2018-06-17T09:42:35.656Z,5.87
2018-06-17T09:45:04.113Z,5.43
2018-06-17T09:47:32.497Z,5.07
2018-06-17T09:50:00.937Z,6.03
2018-06-17T09:52:29.349Z,6.13
2018-06-17T09:54:57.840Z,5.57
2018-06-17T09:57:26.646Z,5.00
2018-06-17T09:59:55.051Z,8.63
2018-06-17T10:02:23.726Z,6.70
2018-06-17T10:04:52.265Z,11.73
2018-06-17T10:07:20.712Z,7.40
2018-06-17T10:10:27.612Z,4.73
2018-06-17T10:12:56.021Z,5.40
2018-06-17T10:15:24.503Z,3.97
2018-06-17T10:17:52.893Z,7.03
2018-06-17T10:20:21.334Z,5.30
2018-06-17T10:22:49.777Z,5.23
2018-06-17T10:25:18.188Z,5.77
2018-06-17T10:27:46.610Z,5.03
2018-06-17T10:30:15.112Z,4.97
2018-06-17T10:32:43.524Z,5.97
2018-06-17T10:35:11.924Z,5.70
2018-06-17T10:37:40.323Z,5.90
2018-06-17T10:40:08.833Z,3.90
2018-06-17T10:42:38.459Z,4.60
2018-06-17T10:45:06.912Z,3.90
2018-06-17T10:47:35.345Z,6.00
2018-06-17T10:50:03.951Z,7.07
2018-06-17T10:52:32.416Z,4.53
2018-06-17T10:55:00.866Z,5.13
2018-06-17T10:57:29.323Z,8.40
2018-06-17T10:59:57.761Z,6.00
2018-06-17T11:02:26.205Z,6.60
2018-06-17T11:04:54.621Z,4.53
2018-06-17T11:07:23.057Z,5.63
2018-06-17T11:09:51.628Z,5.27
2018-06-17T11:12:20.189Z,6.13
2018-06-17T11:14:48.700Z,4.77
2018-06-17T11:17:17.560Z,6.27
2018-06-17T11:19:46.413Z,4.97
2018-06-17T11:22:14.811Z,11.20
2018-06-17T11:24:43.541Z,6.30
2018-06-17T11:27:12.159Z,4.40
2018-06-17T11:29:40.660Z,6.80
2018-06-17T11:32:09.340Z,4.90
2018-06-17T11:34:37.796Z,5.37
2018-06-17T11:37:06.537Z,9.40
2018-06-17T11:39:35.000Z,16.43
2018-06-17T11:42:03.401Z,9.57
2018-06-17T11:44:32.861Z,4.80
2018-06-17T11:47:01.286Z,10.63
2018-06-17T11:49:29.927Z,6.27
2018-06-17T11:51:58.334Z,8.93
2018-06-17T11:54:26.808Z,8.23
2018-06-17T11:56:55.213Z,6.87
2018-06-17T11:59:23.632Z,5.47
2018-06-17T12:01:52.156Z,5.37
2018-06-17T12:04:20.553Z,6.27
2018-06-17T12:06:49.006Z,7.03
2018-06-17T12:09:17.424Z,6.53
2018-06-17T12:11:46.535Z,7.30
2018-06-17T12:14:15.014Z,7.13
2018-06-17T12:16:43.458Z,7.30
2018-06-17T12:19:12.029Z,7.37
2018-06-17T12:21:40.484Z,9.63
2018-06-17T12:24:08.935Z,8.37
2018-06-17T12:26:37.455Z,10.90
2018-06-17T12:29:05.890Z,9.57
2018-06-17T12:31:34.329Z,6.87
2018-06-17T12:34:02.823Z,6.57
2018-06-17T12:36:31.274Z,7.13
2018-06-17T12:38:59.659Z,6.00
2018-06-17T12:41:28.067Z,6.40
2018-06-17T12:43:56.473Z,7.80
2018-06-17T12:46:24.889Z,7.63
2018-06-17T12:48:53.656Z,7.87
2018-06-17T12:51:22.148Z,7.50
2018-06-17T12:53:50.809Z,5.67
2018-06-17T12:56:19.213Z,8.53
2018-06-17T12:58:47.621Z,6.50
2018-06-17T13:01:16.157Z,7.00
2018-06-17T13:03:44.577Z,6.40
2018-06-17T13:06:12.944Z,7.17
2018-06-17T13:08:41.410Z,6.73
2018-06-17T13:11:09.823Z,8.67
2018-06-17T13:13:38.244Z,7.63
2018-06-17T13:16:06.698Z,7.40
2018-06-17T13:18:35.104Z,8.17
2018-06-17T13:21:03.564Z,7.70
2018-06-17T13:23:32.057Z,7.60
2018-06-17T13:26:00.479Z,5.87
2018-06-17T13:28:28.909Z,6.83
2018-06-17T13:30:57.376Z,6.07
2018-06-17T13:33:25.456Z,7.43
2018-06-17T13:35:54.057Z,7.57
2018-06-17T13:38:22.436Z,6.90
2018-06-17T13:40:50.913Z,6.77
2018-06-17T13:43:19.365Z,7.60
2018-06-17T13:45:47.797Z,10.10
2018-06-17T13:48:16.220Z,7.23
2018-06-17T13:50:44.672Z,6.37
2018-06-17T13:53:13.068Z,6.13
2018-06-17T13:55:41.543Z,6.30
2018-06-17T13:58:09.958Z,6.67
2018-06-17T14:00:38.408Z,6.00
2018-06-17T14:03:06.789Z,4.23
2018-06-17T14:05:35.248Z,7.53
2018-06-17T14:08:03.728Z,6.03
2018-06-17T14:10:32.423Z,6.13
2018-06-17T14:13:00.844Z,9.20
2018-06-17T14:15:29.331Z,7.30
2018-06-17T14:17:57.769Z,8.70
2018-06-17T14:20:26.165Z,8.00
2018-06-17T14:22:54.588Z,6.20
2018-06-17T14:25:23.024Z,6.17
2018-06-17T14:27:51.470Z,6.33
2018-06-17T14:30:19.989Z,5.73
2018-06-17T14:32:48.576Z,5.73
2018-06-17T14:35:16.963Z,6.07
2018-06-17T14:37:45.360Z,8.17
2018-06-17T14:40:13.822Z,9.23
2018-06-17T14:42:47.489Z,6.47
2018-06-17T14:45:21.200Z,5.33
2018-06-17T14:47:55.000Z,5.83
2018-06-17T14:50:28.775Z,8.37
2018-06-17T14:53:03.691Z,5.67
2018-06-17T14:55:32.333Z,6.83
2018-06-17T14:58:00.805Z,7.83
2018-06-17T15:00:29.198Z,9.27
2018-06-17T15:02:57.661Z,11.63
2018-06-17T15:05:26.673Z,8.83
2018-06-17T15:07:55.114Z,8.07
2018-06-17T15:10:23.875Z,7.50
2018-06-17T15:12:52.324Z,7.20
2018-06-17T15:15:20.845Z,7.00
2018-06-17T15:17:49.500Z,6.97
2018-06-17T15:20:17.920Z,5.83
2018-06-17T15:22:46.448Z,5.30
2018-06-17T15:25:15.171Z,4.70
2018-06-17T15:27:43.654Z,5.80
2018-06-17T15:30:12.162Z,6.27
2018-06-17T15:33:45.713Z,7.53
2018-06-17T15:36:19.408Z,7.83
2018-06-17T15:38:52.248Z,6.50
2018-06-17T15:41:30.415Z,6.07
2018-06-17T15:43:59.395Z,7.77
2018-06-17T15:46:28.306Z,6.10
2018-06-17T15:48:56.752Z,5.13
2018-06-17T15:51:25.253Z,6.73
2018-06-17T15:53:53.874Z,5.37
2018-06-17T15:56:22.640Z,6.70
2018-06-17T15:58:51.141Z,5.70
2018-06-17T16:01:19.649Z,4.37
2018-06-17T16:03:48.075Z,5.13
2018-06-17T16:06:16.537Z,6.30
2018-06-17T16:08:44.921Z,6.27
2018-06-17T16:11:13.369Z,7.43
2018-06-17T16:13:47.155Z,6.50
2018-06-17T16:16:21.251Z,7.20
2018-06-17T16:18:54.997Z,5.53
2018-06-17T16:21:24.412Z,4.33
2018-06-17T16:23:52.849Z,3.67
2018-06-17T16:26:21.300Z,7.53
2018-06-17T16:28:49.916Z,7.47
2018-06-17T16:31:18.384Z,6.60
2018-06-17T16:33:46.808Z,5.57
2018-06-17T16:36:15.226Z,5.43
2018-06-17T16:38:43.753Z,4.40
2018-06-17T16:41:12.191Z,6.33
2018-06-17T16:43:40.602Z,5.80
2018-06-17T16:46:09.061Z,5.80
2018-06-17T16:48:37.471Z,4.83
2018-06-17T16:51:11.316Z,5.07
2018-06-17T16:53:45.145Z,7.80
2018-06-17T16:56:18.925Z,6.10
2018-06-17T16:58:52.758Z,4.93
2018-06-17T17:01:21.240Z,6.23
2018-06-17T17:03:49.792Z,5.47
2018-06-17T17:06:18.313Z,4.17
2018-06-17T17:08:46.751Z,5.90
2018-06-17T17:11:15.197Z,4.23
2018-06-17T17:13:43.643Z,5.37
2018-06-17T17:16:12.051Z,5.90
2018-06-17T17:18:40.460Z,5.93
2018-06-17T17:21:08.934Z,5.63
2018-06-17T17:23:37.399Z,5.13
2018-06-17T17:26:05.888Z,7.00
2018-06-17T17:28:34.297Z,4.57
2018-06-17T17:31:02.860Z,4.20
2018-06-17T17:33:36.743Z,5.53
2018-06-17T17:36:10.544Z,8.00
2018-06-17T17:38:44.221Z,4.53
2018-06-17T17:41:12.648Z,5.63
2018-06-17T17:43:41.183Z,7.53
2018-06-17T17:46:15.005Z,5.90
2018-06-17T17:48:43.469Z,6.30
2018-06-17T17:51:11.876Z,6.87
2018-06-17T17:53:40.377Z,5.77
2018-06-17T17:56:08.849Z,5.50
2018-06-17T17:58:37.474Z,5.90
2018-06-17T18:01:05.997Z,7.50
2018-06-17T18:03:34.460Z,4.77
2018-06-17T18:06:02.873Z,6.93
2018-06-17T18:08:31.301Z,5.67
2018-06-17T18:10:59.712Z,9.10
2018-06-17T18:13:28.184Z,6.93
2018-06-17T18:15:56.658Z,6.70
2018-06-17T18:18:25.075Z,6.37
2018-06-17T18:20:53.476Z,7.33
2018-06-17T18:23:21.960Z,7.83
2018-06-17T18:25:55.653Z,4.83
2018-06-17T18:28:29.593Z,6.87
2018-06-17T18:31:02.349Z,6.07
2018-06-17T18:33:36.444Z,6.27
2018-06-17T18:36:11.865Z,7.83
2018-06-17T18:38:41.891Z,5.80
2018-06-17T18:41:11.439Z,5.53
2018-06-17T18:43:40.160Z,6.37
2018-06-17T18:46:09.396Z,6.97
2018-06-17T18:48:38.084Z,8.83
2018-06-17T18:51:06.532Z,6.87
2018-06-17T18:53:34.933Z,5.03
2018-06-17T18:56:03.413Z,7.97
2018-06-17T18:58:31.984Z,6.30
2018-06-17T19:01:00.422Z,5.90
2018-06-17T19:03:28.925Z,11.40
2018-06-17T19:05:57.463Z,10.80
2018-06-17T19:08:31.116Z,6.47
2018-06-17T19:11:04.869Z,5.67
2018-06-17T19:13:38.644Z,5.73
2018-06-17T19:16:14.668Z,4.67
2018-06-17T19:18:43.133Z,5.27
2018-06-17T19:21:11.576Z,7.77
2018-06-17T19:23:40.025Z,8.77
2018-06-17T19:26:08.464Z,6.93
2018-06-17T19:28:36.718Z,5.43
2018-06-17T19:31:05.277Z,6.00
2018-06-17T19:33:33.820Z,6.83
2018-06-17T19:36:02.756Z,5.97
2018-06-17T19:38:31.188Z,4.93
2018-06-17T19:40:59.751Z,8.73
2018-06-17T19:43:28.255Z,7.33
2018-06-17T19:45:56.781Z,6.57
2018-06-17T19:48:25.297Z,6.23
2018-06-17T19:50:59.228Z,5.50
2018-06-17T19:53:33.081Z,9.80
2018-06-17T19:56:06.792Z,6.10
2018-06-17T19:58:40.497Z,5.60
2018-06-17T20:01:08.944Z,6.73
2018-06-17T20:03:37.393Z,8.23
2018-06-17T20:06:05.967Z,6.27
2018-06-17T20:08:34.602Z,6.33
2018-06-17T20:11:03.109Z,7.27
2018-06-17T20:13:31.533Z,6.33
2018-06-17T20:15:59.977Z,6.23
2018-06-17T20:18:28.392Z,4.80
2018-06-17T20:20:56.812Z,5.47
2018-06-17T20:23:25.274Z,6.03
2018-06-17T20:25:53.668Z,6.87
2018-06-17T20:28:22.121Z,5.50
2018-06-17T20:30:50.754Z,8.70
2018-06-17T20:33:24.584Z,5.77
2018-06-17T20:35:58.342Z,7.03
2018-06-17T20:38:32.316Z,5.40
2018-06-17T20:41:06.323Z,10.33
2018-06-17T20:43:40.288Z,8.77
2018-06-17T20:46:08.733Z,7.70
2018-06-17T20:48:37.162Z,6.70
2018-06-17T20:51:05.769Z,5.50
2018-06-17T20:53:34.505Z,6.53
2018-06-17T20:56:03.009Z,6.53
2018-06-17T20:58:31.564Z,7.33
2018-06-17T21:01:00.017Z,7.60
2018-06-17T21:03:28.468Z,6.27
2018-06-17T21:05:56.921Z,8.07
2018-06-17T21:08:25.343Z,8.27
2018-06-17T21:10:53.825Z,9.87
2018-06-17T21:13:22.676Z,6.57
2018-06-17T21:15:51.067Z,5.80
2018-06-17T21:18:24.875Z,7.80
2018-06-17T21:20:58.476Z,6.80
2018-06-17T21:23:32.289Z,5.37
2018-06-17T21:26:06.078Z,4.23
2018-06-17T21:28:34.542Z,5.03
2018-06-17T21:31:03.009Z,5.90
2018-06-17T21:33:31.500Z,4.50
2018-06-17T21:36:00.105Z,5.70
2018-06-17T21:38:28.568Z,8.30
2018-06-17T21:40:56.974Z,6.87
2018-06-17T21:43:25.375Z,7.50
2018-06-17T21:45:53.566Z,5.27
2018-06-17T21:48:22.019Z,6.23
2018-06-17T21:50:50.594Z,6.93
2018-06-17T21:53:19.009Z,7.57
2018-06-17T21:55:47.439Z,4.87
2018-06-17T21:58:20.092Z,7.40
2018-06-17T22:00:48.586Z,6.77
2018-06-17T22:03:16.981Z,8.47
2018-06-17T22:05:45.392Z,4.57
2018-06-17T22:08:19.153Z,5.47
2018-06-17T22:10:52.896Z,6.00
2018-06-17T22:13:21.292Z,4.87
2018-06-17T22:15:54.965Z,6.43
2018-06-17T22:18:23.543Z,6.10
2018-06-17T22:20:52.001Z,6.93
2018-06-17T22:23:20.393Z,5.90
2018-06-17T22:25:48.791Z,6.10
2018-06-17T22:28:17.191Z,5.37
2018-06-17T22:30:45.732Z,8.40
2018-06-17T22:33:14.685Z,9.27
2018-06-17T22:35:43.104Z,5.80
2018-06-17T22:38:11.508Z,5.63
2018-06-17T22:40:39.895Z,5.47
2018-06-17T22:43:08.320Z,6.07
2018-06-17T22:45:36.713Z,5.60
2018-06-17T22:48:05.511Z,4.50
2018-06-17T22:50:33.912Z,6.03
2018-06-17T22:53:13.457Z,5.63
2018-06-17T22:55:41.905Z,5.90
2018-06-17T22:59:15.522Z,4.83
2018-06-17T23:01:49.410Z,6.83
2018-06-17T23:04:23.157Z,7.23
2018-06-17T23:06:57.032Z,3.90
2018-06-17T23:09:30.772Z,5.27
2018-06-17T23:11:59.201Z,7.43
2018-06-17T23:14:27.600Z,4.70
2018-06-17T23:16:56.007Z,6.53
2018-06-17T23:19:26.207Z,8.00
2018-06-17T23:21:55.124Z,4.37
2018-06-17T23:24:23.508Z,6.33
2018-06-17T23:26:51.945Z,3.97
2018-06-17T23:29:20.761Z,4.33
2018-06-17T23:31:49.188Z,5.73
2018-06-17T23:34:17.631Z,5.23
2018-06-17T23:36:46.008Z,5.17
2018-06-17T23:39:14.379Z,5.40
2018-06-17T23:41:42.804Z,9.20
2018-06-17T23:44:11.198Z,5.73
2018-06-17T23:46:44.884Z,3.70
2018-06-17T23:49:18.756Z,7.03
2018-06-17T23:51:52.572Z,7.03
2018-06-17T23:54:26.245Z,4.67
2018-06-17T23:56:54.676Z,6.70
2018-06-17T23:59:23.100Z,5.00
